Time;durP1;ratioP1;P1;durP2;ratioP2;P2;SDS_P1;SDS_P2;PMS_P1;PMS_P2;Temp;Humidity;BMP_temperature;BMP_pressure;BME280_temperature;BME280_humidity;BME280_pressure;Samples;Min_cycle;Max_cycle;Signal;HPM_P1;HPM_P2
2023/11/01 00:05:13;;;;;;;1.80;0.22;;;;;;;;;;6150889;22;20023;-92
2023/11/01 00:08:10;;;;;;;0.32;0.10;;;;;;;;;;6222473;22;20036;-93
2023/11/01 02:49:38;;;;;;;;;;;;;;;;;;;;;
2023/11/01 02:58:29;;;;;;;2.10;0.55;;;;;;;;;;6153960;23;20174;-91
2023/11/01 03:04:44;;;;;;;0.20;0.10;;;;;;;;;;6161015;22;20023;-93
2023/11/01 03:07:56;;;;;;;0.22;0.05;;;;;;;;;;6186149;23;20068;-91
2023/11/01 04:44:12;;;;;;;0.45;0.30;;;;;;;;;;6228539;23;20074;-92
2023/11/01 05:47:14;;;;;;;0.47;0.30;;;;;;;;;;6220322;22;20075;-91
2023/11/01 05:50:06;;;;;;;1.08;0.50;;;;;;;;;;6212562;23;20103;-93
2023/11/01 05:52:37;;;;;;;0.30;0.28;;;;;;;;;;6182251;23;20043;-93
2023/11/01 05:55:26;;;;;;;1.13;0.57;;;;;;;;;;6182714;23;20079;-93
2023/11/01 05:58:11;;;;;;;0.25;0.20;;;;;;;;;;6182596;23;20128;-90
2023/11/01 06:00:38;;;;;;;1.98;0.75;;;;;;;;;;6182041;23;20020;-93
2023/11/01 06:06:17;;;;;;;1.75;0.95;;;;;;;;;;6152877;23;20001;-92
2023/11/01 06:08:48;;;;;;;7.13;1.30;;;;;;;;;;6154139;23;20453;-92
2023/11/01 06:11:26;;;;;;;1.55;0.47;;;;;;;;;;6182540;23;20080;-92
2023/11/01 06:14:09;;;;;;;0.57;0.50;;;;;;;;;;6182059;23;20017;-93
2023/11/01 06:16:45;;;;;;;1.08;0.30;;;;;;;;;;6170310;23;20019;-93
2023/11/01 06:34:11;;;;;;;1.25;0.63;;;;;;;;;;6245923;23;20031;-93
2023/11/01 06:36:54;;;;;;;0.60;0.45;;;;;;;;;;6192156;23;20090;-94
2023/11/01 06:39:23;;;;;;;2.30;0.43;;;;;;;;;;6191198;23;20096;-93
2023/11/01 06:41:49;;;;;;;0.73;0.40;;;;;;;;;;6188232;23;20017;-91
2023/11/01 06:44:15;;;;;;;0.60;0.30;;;;;;;;;;6187500;23;20028;-91
2023/11/01 06:46:41;;;;;;;2.22;0.43;;;;;;;;;;6188412;23;20490;-91
2023/11/01 06:49:07;;;;;;;2.83;0.30;;;;;;;;;;6188469;23;20055;-91
2023/11/01 06:51:33;;;;;;;2.90;0.85;;;;;;;;;;6187869;23;20012;-91
2023/11/01 06:54:00;;;;;;;1.38;0.50;;;;;;;;;;6188842;23;20420;-89
2023/11/01 06:56:26;;;;;;;2.20;0.93;;;;;;;;;;6188469;23;20011;-89
2023/11/01 06:58:52;;;;;;;0.60;0.45;;;;;;;;;;6188676;23;20009;-90
2023/11/01 07:01:18;;;;;;;0.40;0.20;;;;;;;;;;6187903;23;20012;-90
2023/11/01 07:03:44;;;;;;;0.55;0.20;;;;;;;;;;6187577;23;20023;-89
2023/11/01 07:06:10;;;;;;;1.60;0.68;;;;;;;;;;6186777;23;20005;-90
2023/11/01 07:08:36;;;;;;;0.38;0.17;;;;;;;;;;6186887;23;20727;-90
2023/11/01 07:11:02;;;;;;;0.90;0.20;;;;;;;;;;6187839;23;20005;-90
2023/11/01 07:13:28;;;;;;;1.33;0.82;;;;;;;;;;6187383;23;20047;-89
2023/11/01 07:15:54;;;;;;;2.33;1.27;;;;;;;;;;6187862;23;20012;-88
2023/11/01 07:18:20;;;;;;;2.00;0.88;;;;;;;;;;6215333;23;20030;-88
2023/11/01 07:20:46;;;;;;;1.10;0.60;;;;;;;;;;6188868;23;20090;-88
2023/11/01 07:23:12;;;;;;;0.30;0.22;;;;;;;;;;6188952;23;20012;-89
2023/11/01 07:25:38;;;;;;;;;;;;;;;;;;6187753;23;20023;-90
2023/11/01 07:28:04;;;;;;;1.27;0.63;;;;;;;;;;6185393;23;19950;-89
2023/11/01 07:30:30;;;;;;;0.70;0.35;;;;;;;;;;6186463;23;20023;-91
2023/11/01 07:32:56;;;;;;;3.10;1.00;;;;;;;;;;6184480;23;20387;-91
2023/11/01 07:35:22;;;;;;;1.77;0.77;;;;;;;;;;6196766;23;20056;-91
2023/11/01 07:37:48;;;;;;;3.42;0.60;;;;;;;;;;6210039;23;20008;-91
2023/11/01 07:40:14;;;;;;;1.50;0.73;;;;;;;;;;6211529;23;20028;-91
2023/11/01 07:42:40;;;;;;;0.52;0.20;;;;;;;;;;6210062;23;20028;-91
2023/11/01 07:45:08;;;;;;;0.20;0.20;;;;;;;;;;6210801;23;20021;-90
2023/11/01 07:47:35;;;;;;;1.15;0.50;;;;;;;;;;6211193;23;20005;-90
2023/11/01 07:50:04;;;;;;;2.25;0.47;;;;;;;;;;6211109;23;20008;-91
2023/11/01 07:52:30;;;;;;;1.02;0.50;;;;;;;;;;6211420;23;20012;-90
2023/11/01 07:54:56;;;;;;;3.70;1.35;;;;;;;;;;6211037;23;20031;-90
2023/11/01 07:57:22;;;;;;;0.55;0.43;;;;;;;;;;6211846;23;20546;-90
2023/11/01 07:59:48;;;;;;;2.10;0.68;;;;;;;;;;6210760;23;20005;-90
2023/11/01 08:02:14;;;;;;;0.10;0.10;;;;;;;;;;6211883;23;20048;-90
2023/11/01 08:04:40;;;;;;;1.52;0.40;;;;;;;;;;6212732;23;20039;-90
2023/11/01 08:07:06;;;;;;;0.57;0.30;;;;;;;;;;6213899;23;20013;-90
2023/11/01 08:09:35;;;;;;;0.47;0.05;;;;;;;;;;6212329;23;20668;-90
2023/11/01 08:12:03;;;;;;;0.05;0.03;;;;;;;;;;6213488;23;20051;-91
2023/11/01 08:14:29;;;;;;;0.03;0.03;;;;;;;;;;6212958;23;20425;-87
2023/11/01 08:16:56;;;;;;;0.50;0.20;;;;;;;;;;6213785;23;20016;-90
2023/11/01 08:19:22;;;;;;;1.00;0.57;;;;;;;;;;6212023;23;20009;-90
2023/11/01 08:21:48;;;;;;;;;;;;;;;;;;6211983;23;20019;-90
2023/11/01 08:24:14;;;;;;;0.93;0.40;;;;;;;;;;6212372;23;19978;-90
2023/11/01 08:26:40;;;;;;;1.35;0.68;;;;;;;;;;6209609;23;20012;-89
2023/11/01 08:29:06;;;;;;;0.73;0.45;;;;;;;;;;6211276;23;19997;-89
2023/11/01 08:31:32;;;;;;;1.27;0.63;;;;;;;;;;6211741;23;20364;-87
2023/11/01 08:33:58;;;;;;;1.38;0.52;;;;;;;;;;6211232;23;20051;-90
2023/11/01 08:36:24;;;;;;;0.98;0.52;;;;;;;;;;6239248;23;20031;-89
2023/11/01 08:38:50;;;;;;;0.20;0.10;;;;;;;;;;6214603;23;20008;-91
2023/11/01 08:41:18;;;;;;;0.43;0.40;;;;;;;;;;6215266;23;20085;-91
2023/11/01 08:43:44;;;;;;;1.48;0.35;;;;;;;;;;6214796;23;20058;-89
2023/11/01 08:46:11;;;;;;;1.38;0.55;;;;;;;;;;6215600;23;20024;-88
2023/11/01 08:48:37;;;;;;;0.60;0.40;;;;;;;;;;6215292;23;20040;-88
2023/11/01 08:51:03;;;;;;;9.95;1.10;;;;;;;;;;6213636;23;20384;-88
2023/11/01 08:53:29;;;;;;;4.28;1.05;;;;;;;;;;6215974;23;20004;-88
2023/11/01 08:55:55;;;;;;;0.38;0.30;;;;;;;;;;6216696;23;20417;-89
2023/11/01 08:58:21;;;;;;;0.10;0.10;;;;;;;;;;6215717;23;20046;-87
2023/11/01 09:00:47;;;;;;;1.73;0.88;;;;;;;;;;6214611;23;20082;-89
2023/11/01 09:03:13;;;;;;;1.00;0.50;;;;;;;;;;6214468;23;20008;-87
2023/11/01 09:05:39;;;;;;;1.02;0.65;;;;;;;;;;6214404;23;20027;-88
2023/11/01 09:08:05;;;;;;;2.38;0.65;;;;;;;;;;6215045;23;20309;-89
2023/11/01 09:10:31;;;;;;;0.88;0.30;;;;;;;;;;6214547;23;20008;-88
2023/11/01 09:12:57;;;;;;;2.08;0.38;;;;;;;;;;6214546;23;20416;-90
2023/11/01 09:15:24;;;;;;;0.22;0.15;;;;;;;;;;6214305;23;20091;-87
2023/11/01 09:17:50;;;;;;;0.40;0.20;;;;;;;;;;6215630;23;20012;-87
2023/11/01 09:20:16;;;;;;;0.82;0.52;;;;;;;;;;6214060;23;20322;-89
2023/11/01 09:22:42;;;;;;;0.75;0.47;;;;;;;;;;6242127;23;20008;-91
2023/11/01 09:25:08;;;;;;;1.80;0.20;;;;;;;;;;6214129;23;20020;-91
2023/11/01 09:27:34;;;;;;;0.80;0.30;;;;;;;;;;6217069;23;20043;-90
2023/11/01 09:30:00;;;;;;;0.70;0.22;;;;;;;;;;6214314;23;20012;-89
2023/11/01 09:32:26;;;;;;;0.40;0.15;;;;;;;;;;6214471;23;20704;-89
2023/11/01 09:34:52;;;;;;;0.60;0.40;;;;;;;;;;6239334;23;20022;-90
2023/11/01 09:37:18;;;;;;;0.30;0.30;;;;;;;;;;6213928;23;20207;-91
2023/11/01 09:39:44;;;;;;;0.60;0.40;;;;;;;;;;6215731;23;20020;-91
2023/11/01 09:42:20;;;;;;;3.42;0.30;;;;;;;;;;6216563;23;20123;-90
2023/11/01 09:44:47;;;;;;;0.93;0.55;;;;;;;;;;6215853;23;20016;-90
2023/11/01 09:47:15;;;;;;;1.23;0.50;;;;;;;;;;6213811;23;20016;-91
2023/11/01 09:49:43;;;;;;;0.43;0.32;;;;;;;;;;6213323;23;20107;-89
2023/11/01 09:52:11;;;;;;;1.02;0.43;;;;;;;;;;6216305;23;20481;-89
2023/11/01 09:54:37;;;;;;;0.22;0.20;;;;;;;;;;6216401;23;20030;-89
2023/11/01 09:57:06;;;;;;;1.80;0.95;;;;;;;;;;6216040;23;20092;-89
2023/11/01 09:59:35;;;;;;;1.63;0.30;;;;;;;;;;6215172;23;20020;-90
2023/11/01 10:02:02;;;;;;;1.27;0.52;;;;;;;;;;6216614;23;20008;-90
2023/11/01 10:04:29;;;;;;;0.70;0.30;;;;;;;;;;6210633;23;20012;-89
2023/11/01 10:06:55;;;;;;;0.47;0.17;;;;;;;;;;6217689;23;20012;-89
2023/11/01 10:09:21;;;;;;;0.77;0.35;;;;;;;;;;6215923;23;20011;-89
2023/11/01 10:11:47;;;;;;;0.63;0.40;;;;;;;;;;6216668;23;20004;-90
2023/11/01 10:14:25;;;;;;;0.52;0.30;;;;;;;;;;6215637;23;20424;-89
2023/11/01 10:17:16;;;;;;;0.80;0.22;;;;;;;;;;6214377;22;20066;-86
2023/11/01 10:19:44;;;;;;;2.33;0.20;;;;;;;;;;6185292;23;20024;-88
2023/11/01 10:25:15;;;;;;;1.40;0.50;;;;;;;;;;6210515;23;20680;-89
2023/11/01 10:27:41;;;;;;;1.30;0.30;;;;;;;;;;6185739;23;20390;-89
2023/11/01 10:30:08;;;;;;;3.00;0.82;;;;;;;;;;6182792;23;20012;-86
2023/11/01 10:32:34;;;;;;;1.35;0.32;;;;;;;;;;6185783;23;20075;-88
2023/11/01 10:35:22;;;;;;;0.30;0.20;;;;;;;;;;6190253;22;20013;-86
2023/11/01 10:41:24;;;;;;;2.45;0.95;;;;;;;;;;6274354;22;20042;-86
2023/11/01 10:43:50;;;;;;;4.22;0.68;;;;;;;;;;6245796;22;20011;-86
2023/11/01 10:46:16;;;;;;;1.48;0.43;;;;;;;;;;6246485;22;20007;-85
2023/11/01 10:48:42;;;;;;;;;;;;;;;;;;6245969;22;20015;-86
2023/11/01 10:51:08;;;;;;;1.23;0.40;;;;;;;;;;6274161;22;19957;-88
2023/11/01 10:53:37;;;;;;;2.92;1.17;;;;;;;;;;6246410;22;20035;-87
2023/11/01 10:56:03;;;;;;;2.55;1.08;;;;;;;;;;6246794;22;20012;-85
2023/11/01 10:58:31;;;;;;;1.92;0.90;;;;;;;;;;6244356;22;20451;-85
2023/11/01 11:00:57;;;;;;;1.42;0.63;;;;;;;;;;6272138;22;20382;-86
2023/11/01 11:03:34;;;;;;;1.52;0.50;;;;;;;;;;6243660;22;20432;-88
2023/11/01 11:06:07;;;;;;;1.98;0.80;;;;;;;;;;6244991;22;20376;-88
2023/11/01 11:08:33;;;;;;;2.50;0.50;;;;;;;;;;6243927;22;20828;-87
2023/11/01 11:11:18;;;;;;;1.77;0.30;;;;;;;;;;6246531;22;20043;-87
2023/11/01 11:13:49;;;;;;;0.38;0.30;;;;;;;;;;6245771;22;20011;-88
2023/11/01 11:16:44;;;;;;;1.13;0.40;;;;;;;;;;6247595;22;20014;-89
2023/11/01 11:19:10;;;;;;;0.20;0.10;;;;;;;;;;6270482;22;20399;-88
2023/11/01 11:21:45;;;;;;;0.32;0.20;;;;;;;;;;6245997;22;20481;-86
2023/11/01 11:24:30;;;;;;;0.30;0.30;;;;;;;;;;6272014;22;20011;-85
2023/11/01 11:26:56;;;;;;;0.20;0.10;;;;;;;;;;6272585;22;20010;-86
2023/11/01 11:29:40;;;;;;;0.25;0.17;;;;;;;;;;6245615;22;20510;-86
2023/11/01 11:32:07;;;;;;;2.00;0.60;;;;;;;;;;6246358;22;20012;-86
2023/11/01 11:34:33;;;;;;;0.60;0.15;;;;;;;;;;6272686;22;20008;-86
2023/11/01 11:37:08;;;;;;;0.77;0.30;;;;;;;;;;6245814;22;20027;-86
2023/11/01 11:39:54;;;;;;;0.75;0.35;;;;;;;;;;6246331;22;20015;-86
2023/11/01 11:42:38;;;;;;;1.88;0.40;;;;;;;;;;6274981;22;20419;-85
2023/11/01 11:45:04;;;;;;;2.83;0.65;;;;;;;;;;6246787;22;20114;-87
2023/11/01 11:56:09;;;;;;;1.75;0.93;;;;;;;;;;6211664;23;20015;-87
2023/11/01 11:58:38;;;;;;;0.52;0.20;;;;;;;;;;6135152;23;20066;-86
2023/11/01 12:01:04;;;;;;;0.82;0.38;;;;;;;;;;6188088;23;20019;-89
2023/11/01 12:03:37;;;;;;;2.55;0.63;;;;;;;;;;6184403;23;20324;-90
2023/11/01 12:06:03;;;;;;;0.30;0.10;;;;;;;;;;6184512;23;20008;-87
2023/11/01 12:08:40;;;;;;;0.35;0.10;;;;;;;;;;6184567;23;20043;-89
2023/11/01 12:11:07;;;;;;;0.43;0.20;;;;;;;;;;6183987;23;20332;-87
2023/11/01 12:13:44;;;;;;;0.98;0.70;;;;;;;;;;6185038;23;20340;-87
2023/11/01 12:16:10;;;;;;;0.95;0.38;;;;;;;;;;6184063;23;20054;-86
2023/11/01 12:18:36;;;;;;;2.25;0.60;;;;;;;;;;6185059;23;20123;-85
2023/11/01 12:21:12;;;;;;;1.40;0.43;;;;;;;;;;6185078;23;20156;-90
2023/11/01 12:23:46;;;;;;;0.95;0.35;;;;;;;;;;6185328;23;20017;-87
2023/11/01 12:26:12;;;;;;;1.13;0.60;;;;;;;;;;6185339;23;20155;-84
2023/11/01 12:28:38;;;;;;;0.30;0.30;;;;;;;;;;6186131;23;20059;-88
2023/11/01 12:31:14;;;;;;;1.30;0.45;;;;;;;;;;6184868;23;20352;-88
2023/11/01 12:33:40;;;;;;;0.57;0.38;;;;;;;;;;6187460;23;20016;-88
2023/11/01 12:36:06;;;;;;;1.90;0.43;;;;;;;;;;6188038;23;20096;-87
2023/11/01 12:38:33;;;;;;;2.38;0.43;;;;;;;;;;6188766;23;20012;-86
2023/11/01 12:40:59;;;;;;;1.25;0.75;;;;;;;;;;6186883;23;20012;-89
2023/11/01 12:43:26;;;;;;;0.75;0.43;;;;;;;;;;6186390;23;20013;-87
2023/11/01 12:45:52;;;;;;;1.20;0.43;;;;;;;;;;6185683;23;20379;-87
2023/11/01 12:48:19;;;;;;;2.05;0.57;;;;;;;;;;6185595;23;20442;-89
2023/11/01 12:50:47;;;;;;;0.70;0.30;;;;;;;;;;6185874;23;20011;-87
2023/11/01 12:53:14;;;;;;;0.30;0.20;;;;;;;;;;6180675;23;20031;-87
2023/11/01 12:55:40;;;;;;;;;;;;;;;;;;6181289;23;20016;-89
2023/11/01 12:58:29;;;;;;;0.10;0.10;;;;;;;;;;6180477;23;19912;-89
2023/11/01 13:01:20;;;;;;;;;;;;;;;;;;;;;
2023/11/01 13:03:49;;;;;;;1.25;0.50;;;;;;;;;;6180845;23;20785;-88
2023/11/01 13:06:15;;;;;;;;;;;;;;;;;;6185020;23;20013;-85
2023/11/01 13:08:41;;;;;;;;;;;;;;;;;;6186380;23;19904;-87
2023/11/01 13:11:08;;;;;;;0.75;0.20;;;;;;;;;;6181889;23;19927;-87
2023/11/01 13:13:34;;;;;;;0.38;0.20;;;;;;;;;;6181527;23;20005;-87
2023/11/01 13:16:31;;;;;;;0.28;0.10;;;;;;;;;;6182602;23;20017;-89
2023/11/01 13:19:00;;;;;;;4.78;0.30;;;;;;;;;;6183943;23;20041;-88
2023/11/01 13:21:26;;;;;;;0.65;0.30;;;;;;;;;;6181926;23;20064;-87
2023/11/01 13:24:05;;;;;;;0.95;0.45;;;;;;;;;;6181296;23;20012;-88
2023/11/01 13:29:55;;;;;;;1.80;0.75;;;;;;;;;;6100229;23;20355;-87
2023/11/01 13:38:59;;;;;;;1.60;0.47;;;;;;;;;;6089058;23;20764;-89
2023/11/01 13:41:35;;;;;;;1.90;0.65;;;;;;;;;;6174067;23;20726;-88
2023/11/01 13:44:01;;;;;;;4.43;1.80;;;;;;;;;;6177714;23;20680;-87
2023/11/01 13:46:30;;;;;;;3.17;0.43;;;;;;;;;;6178203;23;20376;-89
2023/11/01 13:48:56;;;;;;;0.63;0.20;;;;;;;;;;6178855;23;20401;-88
2023/11/01 13:51:25;;;;;;;0.95;0.40;;;;;;;;;;6183808;23;20067;-89
2023/11/01 13:53:51;;;;;;;3.65;0.20;;;;;;;;;;6184961;23;20005;-88
2023/11/01 13:56:17;;;;;;;0.25;0.17;;;;;;;;;;6184773;23;20016;-88
2023/11/01 13:58:47;;;;;;;0.65;0.30;;;;;;;;;;6185194;23;20748;-88
2023/11/01 14:01:21;;;;;;;0.95;0.45;;;;;;;;;;6147533;23;20365;-88
2023/11/01 14:03:57;;;;;;;0.98;0.30;;;;;;;;;;6147984;23;20021;-88
2023/11/01 14:06:28;;;;;;;1.25;0.57;;;;;;;;;;6148112;23;20021;-86
2023/11/01 14:08:57;;;;;;;2.80;0.50;;;;;;;;;;6149779;23;20010;-87
2023/11/01 14:11:26;;;;;;;0.43;0.20;;;;;;;;;;6160340;23;20040;-89
2023/11/01 15:02:26;;;;;;;0.00;0.00;;;;;;;;;;6243018;23;20023;-85
2023/11/01 16:15:32;;;;;;;1.05;0.32;;;;;;;;;;6241530;22;20020;-90
2023/11/01 16:26:58;;;;;;;1.15;0.38;;;;;;;;;;6247578;23;20019;-89
2023/11/01 16:29:39;;;;;;;1.02;0.30;;;;;;;;;;6221783;23;20430;-92
2023/11/01 16:32:26;;;;;;;0.22;0.10;;;;;;;;;;6219666;23;20046;-93
2023/11/01 16:38:01;;;;;;;0.93;0.63;;;;;;;;;;6243397;23;20332;-92
2023/11/01 16:47:10;;;;;;;1.30;0.60;;;;;;;;;;6244274;23;20337;-93
2023/11/01 16:49:59;;;;;;;;;;;;;;;;;;;;;
2023/11/01 16:52:35;;;;;;;;;;;;;;;;;;;;;
2023/11/01 16:55:11;;;;;;;0.20;0.10;;;;;;;;;;6245757;23;20768;-93
2023/11/01 16:58:13;;;;;;;;;;;;;;;;;;;;;
2023/11/01 17:00:44;;;;;;;;;;;;;;;;;;6181047;23;20101;-92
2023/11/01 17:03:32;;;;;;;0.00;0.00;;;;;;;;;;6181600;23;19924;-91
2023/11/01 17:06:01;;;;;;;0.35;0.17;;;;;;;;;;6182574;23;20021;-90
2023/11/01 17:08:42;;;;;;;0.08;0.00;;;;;;;;;;6182778;23;20440;-92
2023/11/01 17:11:39;;;;;;;0.30;0.25;;;;;;;;;;6183450;23;20047;-91
2023/11/01 18:13:46;;;;;;;;;;;;;;;;;;;;;
2023/11/01 18:22:38;;;;;;;0.95;0.38;;;;;;;;;;6246999;22;20628;-89
2023/11/01 18:25:28;;;;;;;0.73;0.20;;;;;;;;;;6220304;23;20365;-91
2023/11/01 18:31:03;;;;;;;1.55;0.43;;;;;;;;;;6214329;23;20452;-89
2023/11/01 18:33:29;;;;;;;0.70;0.10;;;;;;;;;;6216020;23;20336;-88
2023/11/01 18:35:58;;;;;;;2.88;0.15;;;;;;;;;;6214454;23;20004;-90
2023/11/01 18:38:50;;;;;;;0.28;0.13;;;;;;;;;;6215059;23;20016;-89
2023/11/01 18:44:08;;;;;;;;;;;;;;;;;;6216335;23;20032;-87
2023/11/01 18:46:42;;;;;;;0.32;0.10;;;;;;;;;;6215808;23;20370;-88
2023/11/01 18:49:32;;;;;;;0.20;0.10;;;;;;;;;;6214987;23;20060;-89
2023/11/01 18:52:08;;;;;;;0.10;0.10;;;;;;;;;;6214942;23;20020;-88
2023/11/01 18:54:45;;;;;;;2.88;0.32;;;;;;;;;;6212867;23;20017;-89
2023/11/01 18:57:24;;;;;;;4.15;0.55;;;;;;;;;;6215621;23;20005;-88
2023/11/01 18:59:50;;;;;;;;;;;;;;;;;;6243703;23;20040;-88
2023/11/01 19:02:26;;;;;;;;;;;;;;;;;;;;;
2023/11/01 19:10:44;;;;;;;;;;;;;;;;;;6214027;23;19915;-89
2023/11/01 19:15:57;;;;;;;;;;;;;;;;;;6218211;23;19910;-89
2023/11/01 19:18:26;;;;;;;;;;;;;;;;;;6240704;23;19900;-89
2023/11/01 19:23:49;;;;;;;;;;;;;;;;;;6216769;23;20314;-89
2023/11/01 19:26:49;;;;;;;0.60;0.28;;;;;;;;;;6242273;23;20370;-91
2023/11/01 19:29:17;;;;;;;0.45;0.20;;;;;;;;;;6243119;23;20020;-90
2023/11/01 19:34:38;;;;;;;2.30;0.40;;;;;;;;;;6243618;23;19910;-89
2023/11/01 19:37:20;;;;;;;;;;;;;;;;;;;;;
2023/11/01 19:39:49;;;;;;;4.63;1.13;;;;;;;;;;6243524;23;20496;-90
2023/11/01 19:42:15;;;;;;;;;;;;;;;;;;6243524;23;20016;-86
2023/11/01 19:44:51;;;;;;;0.68;0.20;;;;;;;;;;6241986;23;19982;-89
2023/11/01 19:47:18;;;;;;;0.55;0.20;;;;;;;;;;6241215;23;20012;-88
2023/11/01 19:49:58;;;;;;;0.32;0.30;;;;;;;;;;6242682;23;20092;-87
2023/11/01 19:52:44;;;;;;;1.45;0.35;;;;;;;;;;6241002;23;20142;-90
2023/11/01 19:55:24;;;;;;;0.93;0.30;;;;;;;;;;6236328;23;20062;-91
2023/11/01 19:58:18;;;;;;;0.50;0.35;;;;;;;;;;6236875;23;20613;-88
2023/11/01 20:04:05;;;;;;;0.70;0.20;;;;;;;;;;6123371;23;20022;-91
2023/11/01 20:23:18;;;;;;;0.80;0.50;;;;;;;;;;6032453;23;20015;-91
2023/11/01 20:32:09;;;;;;;0.22;0.15;;;;;;;;;;6066151;23;20494;-89
2023/11/01 20:34:56;;;;;;;1.48;0.20;;;;;;;;;;6125479;23;20009;-91
2023/11/01 20:37:41;;;;;;;1.33;0.80;;;;;;;;;;6142913;23;20047;-90
2023/11/01 20:50:06;;;;;;;4.60;1.02;;;;;;;;;;6120321;23;20097;-91
2023/11/01 21:05:52;;;;;;;2.42;0.38;;;;;;;;;;6238398;22;20511;-91
2023/11/01 21:11:53;;;;;;;4.28;1.20;;;;;;;;;;6119810;23;20045;-90
2023/11/01 21:19:34;;;;;;;3.22;0.77;;;;;;;;;;6232913;23;20034;-89
2023/11/01 21:28:30;;;;;;;6.07;1.90;;;;;;;;;;6147732;23;20022;-90
2023/11/01 21:31:42;;;;;;;1.65;0.82;;;;;;;;;;6124227;23;20136;-91
2023/11/01 21:37:15;;;;;;;1.42;1.05;;;;;;;;;;6147442;23;20008;-92
2023/11/01 21:51:06;;;;;;;2.58;0.80;;;;;;;;;;6207589;23;20032;-90
2023/11/01 21:56:43;;;;;;;7.78;1.45;;;;;;;;;;6091077;23;20015;-91
2023/11/01 22:06:21;;;;;;;;;;;;;;;;;;;;;
2023/11/01 22:09:13;;;;;;;3.65;0.63;;;;;;;;;;6182571;23;20850;-90
2023/11/01 22:30:00;;;;;;;0.22;0.20;;;;;;;;;;6213267;23;20063;-91
2023/11/01 22:32:47;;;;;;;3.70;0.73;;;;;;;;;;6180080;23;20017;-90
2023/11/01 22:53:38;;;;;;;;;;;;;;;;;;;;;
2023/11/01 23:16:30;;;;;;;1.08;0.00;;;;;;;;;;6149271;23;20012;-91
2023/11/01 23:19:07;;;;;;;0.50;0.20;;;;;;;;;;6124694;23;20623;-87
2023/11/01 23:22:02;;;;;;;2.25;0.20;;;;;;;;;;6143809;22;20028;-87
2023/11/01 23:27:48;;;;;;;;;;;;;;;;;;;;;
